sensor_id;sensor_type;location;lat;lon;timestamp;pressure;altitude;pressure_sealevel;temperature;humidity
16431;BME280;8325;49.284;7.238;2023-06-26T04:02:16;98602.41;;;16.04;82.98
16431;BME280;8325;49.284;7.238;2023-06-26T04:06:28;98595.88;;;16.14;82.69
16431;BME280;8325;49.284;7.238;2023-06-26T04:10:44;98599.47;;;16.19;82.48
16431;BME280;8325;49.284;7.238;2023-06-26T04:14:56;98604.72;;;16.32;81.74
16431;BME280;8325;49.284;7.238;2023-06-26T04:19:08;98615.25;;;16.32;81.87
16431;BME280;8325;49.284;7.238;2023-06-26T04:23:21;98607.94;;;16.41;81.95
16431;BME280;8325;49.284;7.238;2023-06-26T04:27:33;98621.66;;;16.50;81.46
16431;BME280;8325;49.284;7.238;2023-06-26T04:31:47;98618.78;;;16.58;81.07
16431;BME280;8325;49.284;7.238;2023-06-26T04:35:59;98619.38;;;16.60;80.94
16431;BME280;8325;49.284;7.238;2023-06-26T04:40:15;98621.13;;;16.73;81.05
16431;BME280;8325;49.284;7.238;2023-06-26T04:44:26;98625.63;;;16.72;81.42
16431;BME280;8325;49.284;7.238;2023-06-26T04:48:38;98618.63;;;16.91;80.23
16431;BME280;8325;49.284;7.238;2023-06-26T04:52:50;98617.72;;;17.04;79.31
16431;BME280;8325;49.284;7.238;2023-06-26T04:57:01;98615.59;;;17.19;78.66
16431;BME280;8325;49.284;7.238;2023-06-26T05:01:13;98614.28;;;17.29;78.09
16431;BME280;8325;49.284;7.238;2023-06-26T05:05:25;98619.47;;;17.42;77.63
16431;BME280;8325;49.284;7.238;2023-06-26T05:09:39;98620.84;;;18.61;73.54
16431;BME280;8325;49.284;7.238;2023-06-26T05:13:51;98610.41;;;21.46;62.07
16431;BME280;8325;49.284;7.238;2023-06-26T05:18:02;98614.03;;;23.95;53.38
16431;BME280;8325;49.284;7.238;2023-06-26T05:22:14;98603.94;;;25.52;47.82
16431;BME280;8325;49.284;7.238;2023-06-26T05:26:28;98617.22;;;26.63;45.03
16431;BME280;8325;49.284;7.238;2023-06-26T05:30:40;98610.66;;;28.06;42.17
16431;BME280;8325;49.284;7.238;2023-06-26T05:34:53;98609.53;;;29.26;39.92
16431;BME280;8325;49.284;7.238;2023-06-26T05:39:09;98605.38;;;30.58;37.42
16431;BME280;8325;49.284;7.238;2023-06-26T05:43:20;98608.22;;;31.42;35.36
16431;BME280;8325;49.284;7.238;2023-06-26T05:47:39;98617.09;;;31.74;34.08
16431;BME280;8325;49.284;7.238;2023-06-26T05:51:50;98616.88;;;33.11;32.28
16431;BME280;8325;49.284;7.238;2023-06-26T05:56:02;98626.72;;;33.80;31.20
16431;BME280;8325;49.284;7.238;2023-06-26T06:00:14;98627.38;;;33.77;31.34
16431;BME280;8325;49.284;7.238;2023-06-26T06:04:26;98630.25;;;33.81;31.23
16431;BME280;8325;49.284;7.238;2023-06-26T06:08:38;98634.59;;;35.04;29.65
16431;BME280;8325;49.284;7.238;2023-06-26T06:12:51;98640.50;;;34.97;30.06
16431;BME280;8325;49.284;7.238;2023-06-26T06:17:03;98646.78;;;35.43;29.10
16431;BME280;8325;49.284;7.238;2023-06-26T06:21:15;98648.47;;;34.60;30.13
16431;BME280;8325;49.284;7.238;2023-06-26T06:25:27;98653.94;;;35.15;29.42
16431;BME280;8325;49.284;7.238;2023-06-26T06:29:38;98653.69;;;35.41;29.70
16431;BME280;8325;49.284;7.238;2023-06-26T06:33:50;98654.44;;;34.75;30.18
16431;BME280;8325;49.284;7.238;2023-06-26T06:38:01;98664.16;;;33.05;33.32
16431;BME280;8325;49.284;7.238;2023-06-26T06:42:13;98674.44;;;32.51;34.04
16431;BME280;8325;49.284;7.238;2023-06-26T06:46:25;98690.03;;;31.29;36.25
16431;BME280;8325;49.284;7.238;2023-06-26T06:50:38;98675.75;;;30.56;38.43
16431;BME280;8325;49.284;7.238;2023-06-26T06:54:55;98681.22;;;29.82;39.65
16431;BME280;8325;49.284;7.238;2023-06-26T06:59:07;98689.25;;;29.35;41.05
16431;BME280;8325;49.284;7.238;2023-06-26T07:03:19;98682.19;;;29.07;42.25
16431;BME280;8325;49.284;7.238;2023-06-26T07:07:33;98693.72;;;29.07;42.35
16431;BME280;8325;49.284;7.238;2023-06-26T07:11:45;98703.03;;;28.53;43.94
16431;BME280;8325;49.284;7.238;2023-06-26T07:15:57;98703.41;;;28.65;44.46
16431;BME280;8325;49.284;7.238;2023-06-26T07:20:09;98710.50;;;28.56;43.97
16431;BME280;8325;49.284;7.238;2023-06-26T07:24:26;98713.06;;;28.18;45.01
16431;BME280;8325;49.284;7.238;2023-06-26T07:28:38;98710.91;;;28.20;45.80
16431;BME280;8325;49.284;7.238;2023-06-26T07:32:49;98705.84;;;28.14;45.62
16431;BME280;8325;49.284;7.238;2023-06-26T07:37:01;98707.72;;;28.66;45.41
16431;BME280;8325;49.284;7.238;2023-06-26T07:41:13;98710.13;;;28.44;44.81
16431;BME280;8325;49.284;7.238;2023-06-26T07:45:24;98711.44;;;28.47;45.18
16431;BME280;8325;49.284;7.238;2023-06-26T07:49:37;98715.38;;;28.54;43.81
16431;BME280;8325;49.284;7.238;2023-06-26T07:53:50;98719.28;;;28.86;43.63
16431;BME280;8325;49.284;7.238;2023-06-26T07:58:02;98734.38;;;28.34;44.71
16431;BME280;8325;49.284;7.238;2023-06-26T08:02:13;98729.25;;;28.61;43.66
16431;BME280;8325;49.284;7.238;2023-06-26T08:06:25;98738.63;;;27.87;44.41
16431;BME280;8325;49.284;7.238;2023-06-26T08:10:36;98752.75;;;27.24;45.79
16431;BME280;8325;49.284;7.238;2023-06-26T08:14:48;98748.66;;;27.37;45.68
16431;BME280;8325;49.284;7.238;2023-06-26T08:19:00;98750.41;;;27.91;44.19
16431;BME280;8325;49.284;7.238;2023-06-26T08:23:12;98750.78;;;28.08;42.08
16431;BME280;8325;49.284;7.238;2023-06-26T08:27:24;98749.47;;;28.06;41.20
16431;BME280;8325;49.284;7.238;2023-06-26T08:31:36;98753.31;;;27.60;40.08
16431;BME280;8325;49.284;7.238;2023-06-26T08:35:50;98759.25;;;27.52;40.85
16431;BME280;8325;49.284;7.238;2023-06-26T08:40:01;98753.41;;;27.50;40.64
16431;BME280;8325;49.284;7.238;2023-06-26T08:44:13;98752.75;;;27.63;41.34
16431;BME280;8325;49.284;7.238;2023-06-26T08:48:25;98754.28;;;27.74;41.52
16431;BME280;8325;49.284;7.238;2023-06-26T08:52:43;98759.00;;;27.53;42.24
16431;BME280;8325;49.284;7.238;2023-06-26T08:56:57;98761.28;;;27.70;41.60
16431;BME280;8325;49.284;7.238;2023-06-26T09:01:10;98762.44;;;27.59;41.25
16431;BME280;8325;49.284;7.238;2023-06-26T09:05:22;98754.97;;;27.56;41.34
16431;BME280;8325;49.284;7.238;2023-06-26T09:09:34;98761.34;;;27.65;43.09
16431;BME280;8325;49.284;7.238;2023-06-26T09:13:45;98760.47;;;27.70;43.20
16431;BME280;8325;49.284;7.238;2023-06-26T09:17:59;98758.22;;;27.87;41.81
16431;BME280;8325;49.284;7.238;2023-06-26T09:22:11;98773.06;;;27.74;40.07
16431;BME280;8325;49.284;7.238;2023-06-26T09:26:25;98779.91;;;27.57;38.82
16431;BME280;8325;49.284;7.238;2023-06-26T09:30:37;98765.06;;;27.64;38.31
16431;BME280;8325;49.284;7.238;2023-06-26T09:34:52;98777.44;;;27.65;38.62
16431;BME280;8325;49.284;7.238;2023-06-26T09:39:05;98789.75;;;27.66;38.02
16431;BME280;8325;49.284;7.238;2023-06-26T09:43:19;98783.91;;;27.59;36.99
16431;BME280;8325;49.284;7.238;2023-06-26T09:47:32;98780.63;;;27.67;37.41
16431;BME280;8325;49.284;7.238;2023-06-26T09:51:45;98801.53;;;27.70;38.20
16431;BME280;8325;49.284;7.238;2023-06-26T09:55:57;98805.19;;;27.90;38.83
16431;BME280;8325;49.284;7.238;2023-06-26T10:00:09;98800.69;;;27.75;37.83
16431;BME280;8325;49.284;7.238;2023-06-26T10:04:25;98792.88;;;27.84;38.47
16431;BME280;8325;49.284;7.238;2023-06-26T10:08:38;98788.00;;;27.86;37.88
16431;BME280;8325;49.284;7.238;2023-06-26T10:12:54;98783.25;;;27.77;38.43
16431;BME280;8325;49.284;7.238;2023-06-26T10:17:15;98769.84;;;27.77;38.26
16431;BME280;8325;49.284;7.238;2023-06-26T10:21:29;98768.28;;;28.00;38.13
16431;BME280;8325;49.284;7.238;2023-06-26T10:25:45;98763.34;;;28.13;38.15
16431;BME280;8325;49.284;7.238;2023-06-26T10:30:03;98771.81;;;28.25;37.73
16431;BME280;8325;49.284;7.238;2023-06-26T10:34:16;98776.91;;;28.27;37.98
16431;BME280;8325;49.284;7.238;2023-06-26T10:38:48;98782.28;;;28.27;38.04
16431;BME280;8325;49.284;7.238;2023-06-26T10:43:07;98782.75;;;28.34;38.40
16431;BME280;8325;49.284;7.238;2023-06-26T10:47:32;98780.31;;;28.32;38.95
16431;BME280;8325;49.284;7.238;2023-06-26T10:51:48;98786.53;;;28.33;39.45
16431;BME280;8325;49.284;7.238;2023-06-26T10:56:05;98791.59;;;28.34;39.53
16431;BME280;8325;49.284;7.238;2023-06-26T11:00:17;98800.78;;;28.28;37.49
16431;BME280;8325;49.284;7.238;2023-06-26T11:04:50;98807.63;;;28.15;38.75
16431;BME280;8325;49.284;7.238;2023-06-26T11:13:17;98809.56;;;28.39;37.84
16431;BME280;8325;49.284;7.238;2023-06-26T11:17:30;98810.09;;;28.41;36.37
16431;BME280;8325;49.284;7.238;2023-06-26T11:21:42;98822.78;;;28.59;35.63
16431;BME280;8325;49.284;7.238;2023-06-26T11:25:54;98823.25;;;28.42;35.36
16431;BME280;8325;49.284;7.238;2023-06-26T11:30:07;98836.47;;;28.34;34.87
16431;BME280;8325;49.284;7.238;2023-06-26T11:34:19;98817.81;;;28.18;34.89
16431;BME280;8325;49.284;7.238;2023-06-26T11:38:39;98832.34;;;28.12;33.62
16431;BME280;8325;49.284;7.238;2023-06-26T11:42:50;98827.88;;;28.32;33.00
16431;BME280;8325;49.284;7.238;2023-06-26T11:47:02;98832.56;;;28.50;29.50
16431;BME280;8325;49.284;7.238;2023-06-26T11:51:14;98834.38;;;28.26;28.51
16431;BME280;8325;49.284;7.238;2023-06-26T11:55:26;98827.72;;;28.52;30.33
16431;BME280;8325;49.284;7.238;2023-06-26T11:59:39;98824.09;;;28.62;30.29
16431;BME280;8325;49.284;7.238;2023-06-26T12:03:53;98833.59;;;28.78;30.05
16431;BME280;8325;49.284;7.238;2023-06-26T12:08:05;98826.56;;;28.82;28.25
16431;BME280;8325;49.284;7.238;2023-06-26T12:12:18;98839.31;;;28.72;28.98
16431;BME280;8325;49.284;7.238;2023-06-26T12:16:30;98833.31;;;28.80;28.68
16431;BME280;8325;49.284;7.238;2023-06-26T12:20:42;98827.81;;;28.42;28.08
16431;BME280;8325;49.284;7.238;2023-06-26T12:24:56;98828.38;;;28.87;28.91
16431;BME280;8325;49.284;7.238;2023-06-26T12:29:12;98825.66;;;28.92;28.95
16431;BME280;8325;49.284;7.238;2023-06-26T12:33:25;98821.06;;;28.92;28.98
16431;BME280;8325;49.284;7.238;2023-06-26T12:37:37;98821.13;;;29.11;28.75
16431;BME280;8325;49.284;7.238;2023-06-26T12:41:53;98819.06;;;29.03;28.40
16431;BME280;8325;49.284;7.238;2023-06-26T12:46:05;98834.69;;;29.01;27.60
16431;BME280;8325;49.284;7.238;2023-06-26T12:50:17;98821.84;;;28.93;28.14
16431;BME280;8325;49.284;7.238;2023-06-26T12:54:29;98833.97;;;28.90;26.58
16431;BME280;8325;49.284;7.238;2023-06-26T12:58:40;98834.28;;;28.89;28.13
16431;BME280;8325;49.284;7.238;2023-06-26T13:02:52;98822.44;;;28.90;27.91
16431;BME280;8325;49.284;7.238;2023-06-26T13:07:04;98829.25;;;29.06;27.67
16431;BME280;8325;49.284;7.238;2023-06-26T13:11:15;98847.94;;;28.68;26.57
16431;BME280;8325;49.284;7.238;2023-06-26T13:15:28;98851.28;;;29.08;27.50
16431;BME280;8325;49.284;7.238;2023-06-26T13:19:39;98830.19;;;29.16;27.52
16431;BME280;8325;49.284;7.238;2023-06-26T13:23:51;98856.44;;;29.05;26.91
16431;BME280;8325;49.284;7.238;2023-06-26T13:28:03;98857.78;;;29.26;26.71
16431;BME280;8325;49.284;7.238;2023-06-26T13:32:14;98853.44;;;28.82;27.94
16431;BME280;8325;49.284;7.238;2023-06-26T13:36:26;98857.41;;;29.14;27.42
16431;BME280;8325;49.284;7.238;2023-06-26T13:40:38;98858.19;;;29.14;26.93
16431;BME280;8325;49.284;7.238;2023-06-26T13:44:50;98857.94;;;28.87;28.36
16431;BME280;8325;49.284;7.238;2023-06-26T13:49:14;98861.78;;;28.81;29.00
16431;BME280;8325;49.284;7.238;2023-06-26T13:53:26;98869.56;;;28.58;27.16
16431;BME280;8325;49.284;7.238;2023-06-26T13:57:37;98879.13;;;28.40;27.26
16431;BME280;8325;49.284;7.238;2023-06-26T14:01:53;98871.75;;;28.22;29.00
16431;BME280;8325;49.284;7.238;2023-06-26T14:06:05;98864.16;;;27.95;29.14
16431;BME280;8325;49.284;7.238;2023-06-26T14:10:16;98861.19;;;28.31;28.15
16431;BME280;8325;49.284;7.238;2023-06-26T14:14:28;98862.09;;;28.50;28.46
16431;BME280;8325;49.284;7.238;2023-06-26T14:18:40;98855.50;;;28.66;28.28
16431;BME280;8325;49.284;7.238;2023-06-26T14:22:51;98869.00;;;28.61;28.92
16431;BME280;8325;49.284;7.238;2023-06-26T14:27:03;98862.06;;;28.55;28.21
16431;BME280;8325;49.284;7.238;2023-06-26T14:31:15;98869.25;;;28.31;27.97
16431;BME280;8325;49.284;7.238;2023-06-26T14:35:27;98866.75;;;28.39;28.54
16431;BME280;8325;49.284;7.238;2023-06-26T14:39:38;98871.03;;;28.11;28.77
16431;BME280;8325;49.284;7.238;2023-06-26T14:43:50;98867.28;;;27.68;29.29
16431;BME280;8325;49.284;7.238;2023-06-26T14:48:03;98886.34;;;27.66;27.41
16431;BME280;8325;49.284;7.238;2023-06-26T14:52:14;98883.94;;;27.65;25.66
16431;BME280;8325;49.284;7.238;2023-06-26T14:56:26;98883.81;;;27.90;25.68
16431;BME280;8325;49.284;7.238;2023-06-26T15:00:38;98887.28;;;27.91;26.75
16431;BME280;8325;49.284;7.238;2023-06-26T15:04:50;98885.38;;;27.96;26.92
16431;BME280;8325;49.284;7.238;2023-06-26T15:09:01;98879.25;;;27.86;27.18
16431;BME280;8325;49.284;7.238;2023-06-26T15:13:14;98862.56;;;27.94;27.64
16431;BME280;8325;49.284;7.238;2023-06-26T15:17:25;98877.44;;;27.76;26.98
16431;BME280;8325;49.284;7.238;2023-06-26T15:21:37;98883.09;;;27.74;27.35
16431;BME280;8325;49.284;7.238;2023-06-26T15:25:51;98879.66;;;27.64;25.84
16431;BME280;8325;49.284;7.238;2023-06-26T15:30:02;98867.28;;;27.68;26.22
16431;BME280;8325;49.284;7.238;2023-06-26T15:34:14;98870.72;;;27.84;28.37
16431;BME280;8325;49.284;7.238;2023-06-26T15:38:26;98867.66;;;27.95;28.14
16431;BME280;8325;49.284;7.238;2023-06-26T15:42:47;98866.56;;;27.52;27.61
16431;BME280;8325;49.284;7.238;2023-06-26T15:46:59;98870.50;;;27.70;27.99
16431;BME280;8325;49.284;7.238;2023-06-26T15:51:13;98868.56;;;27.75;28.09
16431;BME280;8325;49.284;7.238;2023-06-26T15:55:26;98870.56;;;27.60;27.97
16431;BME280;8325;49.284;7.238;2023-06-26T15:59:37;98867.19;;;27.39;28.45
16431;BME280;8325;49.284;7.238;2023-06-26T16:03:49;98867.91;;;27.49;28.70
16431;BME280;8325;49.284;7.238;2023-06-26T16:08:00;98863.94;;;27.47;27.94
16431;BME280;8325;49.284;7.238;2023-06-26T16:12:12;98867.75;;;27.30;27.53
16431;BME280;8325;49.284;7.238;2023-06-26T16:16:24;98875.59;;;27.17;27.59
16431;BME280;8325;49.284;7.238;2023-06-26T16:20:35;98876.41;;;27.17;28.33
16431;BME280;8325;49.284;7.238;2023-06-26T16:24:47;98878.00;;;27.13;28.96
16431;BME280;8325;49.284;7.238;2023-06-26T16:28:58;98880.75;;;26.98;29.13
16431;BME280;8325;49.284;7.238;2023-06-26T16:33:10;98878.16;;;26.62;29.54
16431;BME280;8325;49.284;7.238;2023-06-26T16:37:22;98869.03;;;26.48;30.28
16431;BME280;8325;49.284;7.238;2023-06-26T16:41:33;98863.41;;;26.29;30.64
16431;BME280;8325;49.284;7.238;2023-06-26T16:45:45;98867.16;;;26.38;31.72
16431;BME280;8325;49.284;7.238;2023-06-26T16:49:56;98864.75;;;26.31;31.70
16431;BME280;8325;49.284;7.238;2023-06-26T16:54:08;98873.06;;;26.25;31.99
16431;BME280;8325;49.284;7.238;2023-06-26T16:58:21;98881.38;;;26.33;32.35
16431;BME280;8325;49.284;7.238;2023-06-26T17:02:33;98883.50;;;26.26;33.09
16431;BME280;8325;49.284;7.238;2023-06-26T17:06:45;98893.16;;;26.22;33.41
16431;BME280;8325;49.284;7.238;2023-06-26T17:10:56;98891.81;;;26.20;34.03
16431;BME280;8325;49.284;7.238;2023-06-26T17:15:08;98902.25;;;26.06;34.51
16431;BME280;8325;49.284;7.238;2023-06-26T17:19:20;98889.63;;;25.81;34.58
16431;BME280;8325;49.284;7.238;2023-06-26T17:23:32;98898.97;;;25.78;34.79
16431;BME280;8325;49.284;7.238;2023-06-26T17:27:44;98908.31;;;25.70;35.27
16431;BME280;8325;49.284;7.238;2023-06-26T17:31:55;98902.59;;;25.31;36.12
16431;BME280;8325;49.284;7.238;2023-06-26T17:36:07;98913.66;;;25.08;36.12
16431;BME280;8325;49.284;7.238;2023-06-26T17:40:18;98919.50;;;24.94;37.05
16431;BME280;8325;49.284;7.238;2023-06-26T17:44:30;98917.75;;;24.73;37.46
16431;BME280;8325;49.284;7.238;2023-06-26T17:48:42;98929.38;;;24.56;37.91
16431;BME280;8325;49.284;7.238;2023-06-26T17:52:53;98932.81;;;24.52;38.59
16431;BME280;8325;49.284;7.238;2023-06-26T17:57:05;98936.13;;;24.37;38.75
16431;BME280;8325;49.284;7.238;2023-06-26T18:01:17;98935.34;;;24.37;39.35
16431;BME280;8325;49.284;7.238;2023-06-26T18:05:28;98941.28;;;24.17;39.73
16431;BME280;8325;49.284;7.238;2023-06-26T18:09:40;98945.53;;;24.12;39.94
16431;BME280;8325;49.284;7.238;2023-06-26T18:13:51;98946.94;;;23.93;40.14
16431;BME280;8325;49.284;7.238;2023-06-26T18:18:03;98958.06;;;23.85;40.43
16431;BME280;8325;49.284;7.238;2023-06-26T18:22:15;98958.81;;;23.80;40.32
16431;BME280;8325;49.284;7.238;2023-06-26T18:26:26;98960.66;;;23.80;40.11
16431;BME280;8325;49.284;7.238;2023-06-26T18:30:38;98961.16;;;23.77;40.35
16431;BME280;8325;49.284;7.238;2023-06-26T18:34:50;98972.25;;;23.69;40.58
16431;BME280;8325;49.284;7.238;2023-06-26T18:39:01;98969.78;;;23.62;42.35
16431;BME280;8325;49.284;7.238;2023-06-26T18:43:14;98972.00;;;23.48;41.12
16431;BME280;8325;49.284;7.238;2023-06-26T18:47:26;98974.84;;;23.41;42.00
16431;BME280;8325;49.284;7.238;2023-06-26T18:51:38;98973.63;;;23.49;40.48
16431;BME280;8325;49.284;7.238;2023-06-26T18:55:49;98979.97;;;23.26;41.33
16431;BME280;8325;49.284;7.238;2023-06-26T19:00:01;98987.03;;;23.15;41.17
16431;BME280;8325;49.284;7.238;2023-06-26T19:04:13;98984.72;;;23.02;41.83
16431;BME280;8325;49.284;7.238;2023-06-26T19:08:26;98991.66;;;23.03;41.58
16431;BME280;8325;49.284;7.238;2023-06-26T19:12:38;98984.22;;;22.88;42.28
16431;BME280;8325;49.284;7.238;2023-06-26T19:16:49;98985.19;;;22.82;41.69
16431;BME280;8325;49.284;7.238;2023-06-26T19:21:01;98980.44;;;22.67;41.92
16431;BME280;8325;49.284;7.238;2023-06-26T19:25:13;98995.81;;;22.65;41.72
16431;BME280;8325;49.284;7.238;2023-06-26T19:29:24;98995.28;;;22.63;42.09
16431;BME280;8325;49.284;7.238;2023-06-26T19:33:36;98995.78;;;22.60;42.00
16431;BME280;8325;49.284;7.238;2023-06-26T19:37:48;99003.56;;;22.50;42.29
16431;BME280;8325;49.284;7.238;2023-06-26T19:42:15;99010.81;;;22.38;42.90
16431;BME280;8325;49.284;7.238;2023-06-26T19:46:27;99007.34;;;22.37;42.47
16431;BME280;8325;49.284;7.238;2023-06-26T19:50:39;99016.44;;;22.24;43.83
16431;BME280;8325;49.284;7.238;2023-06-26T19:54:50;99021.53;;;22.14;43.26
16431;BME280;8325;49.284;7.238;2023-06-26T19:59:02;99019.25;;;22.06;43.65
16431;BME280;8325;49.284;7.238;2023-06-26T20:03:14;99031.63;;;22.00;43.77
16431;BME280;8325;49.284;7.238;2023-06-26T20:07:26;99031.19;;;21.92;43.51
16431;BME280;8325;49.284;7.238;2023-06-26T20:11:38;99030.41;;;21.79;43.80
16431;BME280;8325;49.284;7.238;2023-06-26T20:15:50;99048.03;;;21.69;44.30
16431;BME280;8325;49.284;7.238;2023-06-26T20:20:02;99046.63;;;21.66;44.62
16431;BME280;8325;49.284;7.238;2023-06-26T20:24:14;99053.81;;;21.54;44.51
16431;BME280;8325;49.284;7.238;2023-06-26T20:28:26;99054.53;;;21.49;45.29
16431;BME280;8325;49.284;7.238;2023-06-26T20:32:37;99070.47;;;21.37;45.20
16431;BME280;8325;49.284;7.238;2023-06-26T20:36:49;99064.66;;;21.29;46.01
16431;BME280;8325;49.284;7.238;2023-06-26T20:41:00;99059.00;;;21.25;46.52
16431;BME280;8325;49.284;7.238;2023-06-26T20:45:13;99056.47;;;21.19;46.93
16431;BME280;8325;49.284;7.238;2023-06-26T20:49:26;99069.63;;;21.13;46.88
16431;BME280;8325;49.284;7.238;2023-06-26T20:53:38;99056.78;;;20.99;47.04
16431;BME280;8325;49.284;7.238;2023-06-26T20:57:50;99055.38;;;20.96;48.30
16431;BME280;8325;49.284;7.238;2023-06-26T21:02:01;99056.91;;;20.92;48.88
16431;BME280;8325;49.284;7.238;2023-06-26T21:06:13;99062.63;;;20.77;48.51
16431;BME280;8325;49.284;7.238;2023-06-26T21:10:25;99066.66;;;20.68;49.00
16431;BME280;8325;49.284;7.238;2023-06-26T21:14:37;99063.59;;;20.53;48.94
16431;BME280;8325;49.284;7.238;2023-06-26T21:18:49;99066.91;;;20.48;50.29
16431;BME280;8325;49.284;7.238;2023-06-26T21:23:01;99063.59;;;20.53;50.33
16431;BME280;8325;49.284;7.238;2023-06-26T21:27:13;99073.63;;;20.51;50.80
